Valle Toledo, Valles Caldera, New Mexico Weather observations

Data are for 10 minute period ending at time listed.
 Day   Time   Solar   Ave.   Ave.  Ave.  Vector  Max.   Baro.   Total    
  of    of     Rad.   Air    Rel.  Wind   Wind   Wind  Press.  Precip.   
Year   Day            Temp.  Hum.  Speed  Dir.   Gust                    
2017   (MST)  Kw/m2    F      %     mph   deg.    mph    mb.     in.     
-------------------------------------------------------------------------
  88   11:30   0.08   41.3    49    8.4   331    21.5   726.6    0.00 
  88   11:40   0.08   40.6    47    6.4   344    15.5   726.6    0.00 
  88   11:50   0.10   40.3    48    7.5   294    18.5   726.6    0.00 
  88   12:00   0.12   42.2    46    9.1   305    17.9   726.7    0.00 
  88   12:10   0.11   42.6    45    9.2   316    14.9   726.8    0.00 
  88   12:20   0.14   43.6    43    9.4   318    16.7   726.9    0.00 
  88   12:30   0.20   45.8    39    6.9   329    16.1   727.0    0.00 
  88   12:40   0.28   45.4    41    8.3   324    15.5   727.0    0.00 
  88   12:50   0.23   44.5    43    5.5   316    12.5   727.0    0.00 
  88   13:00   0.25   43.2    45    7.5   329    13.7   727.0    0.00 
  88   13:10   0.49   47.8    38    6.8   322    13.7   727.0    0.00 
  88   13:20   0.82   48.6    37    6.2   343    12.5   727.0    0.00 
  88   13:30   0.96   49.2    35    7.3   335    13.1   727.0    0.00 
  88   13:40   0.74   47.6    38    6.3   336    11.3   727.0    0.00 
  88   13:50   0.55   45.8    42    4.9   306    11.9   727.0    0.00 
  88   14:00   0.75   46.5    40    5.7   349    11.9   726.9    0.00 
  88   14:10   0.64   47.0    38    6.9   323    11.3   726.9    0.00 
  88   14:20   0.75   46.9    38    6.5   318    12.5   726.9    0.00 
  88   14:30   0.61   45.0    41    6.9   294    14.9   727.0    0.00 
  88   14:40   0.47   44.2    44    6.9   300    14.3   727.1    0.00 
  88   14:50   0.56   44.6    43    6.4   316    12.5   727.2    0.00 
  88   15:00   0.60   45.9    41    5.2   303    11.3   727.2    0.00 
  88   15:10   0.77   47.2    40    5.9   313    13.1   727.2    0.00 
  88   15:20   0.71   48.2    39    7.4   309    13.1   727.2    0.00 
  88   15:30   0.46   46.7    42    5.7   290    13.1   727.3    0.00 
  88   15:40   0.58   45.0    46    5.4   297     9.0   727.3    0.00 
  88   15:50   0.57   46.1    43    6.1   286    10.2   727.3    0.00 
  88   16:00   0.41   45.0    44    6.5   279    13.1   727.3    0.00 
  88   16:10   0.47   44.3    45    6.8   298    10.8   727.3    0.00 
  88   16:20   0.54   46.8    41    5.3   291    10.8   727.3    0.00 
  88   16:30   0.29   47.0    41    5.2   308     9.0   727.4    0.00 
  88   16:40   0.15   43.2    49    4.8   286    10.8   727.4    0.00 
  88   16:50   0.08   41.2    54    6.2   293    10.8   727.5    0.00 
  88   17:00   0.20   40.4    58    7.2   295    15.5   727.7    0.00 
  88   17:10   0.33   42.6    56    2.8   280     4.8   727.8    0.00 
  88   17:20   0.21   44.5    51    1.5   222     4.2   727.9    0.00 
  88   17:30   0.24   44.2    52    2.6   174     4.8   727.9    0.00 
  88   17:40   0.11   42.4    56    2.2   115     3.0   727.9    0.00 
  88   17:50   0.07   41.0    59    2.2   171     4.2   728.0    0.00 
  88   18:00   0.04   40.6    62    1.0    71     1.8   728.0    0.00 
  88   18:10   0.05   42.4    59    1.4    22     2.4   728.1    0.00 
  88   18:20   0.03   41.6    60    0.7    56     1.8   728.1    0.00 
  88   18:30   0.02   39.9    64    0.3    36     2.4   728.1    0.00 
  88   18:40   0.00   38.8    67    2.4    41     3.0   728.1    0.00 
  88   18:50   0.00   37.8    70    1.7     9     2.4   728.1    0.00 
  88   19:00   0.00   37.0    72    1.8    23     3.0   728.2    0.00 
  88   19:10   0.00   36.8    73    2.3    61     3.6   728.3    0.00 
  88   19:20   0.00   36.4    74    1.6    73     2.4   728.5    0.00 
  88   19:30   0.00   35.7    75    2.6    39     3.6   728.6    0.00 
  88   19:40   0.00   34.6    77    2.4    30     3.6   728.7    0.00 
  88   19:50   0.00   33.5    79    2.8    22     4.2   728.8    0.00 
  88   20:00   0.00   32.9    81    3.6    29     4.8   728.8    0.00 
  88   20:10   0.00   32.5    82    2.1    21     3.6   729.0    0.00 
  88   20:20   0.00   32.1    83    3.1    55     4.2   729.1    0.00 
  88   20:30   0.00   32.4    81    3.5    45     4.2   729.1    0.00 
  88   20:40   0.00   32.0    81    2.2    28     3.6   729.2    0.00 
  88   20:50   0.00   31.8    82    2.9    40     4.2   729.1    0.00 
  88   21:00   0.00   31.4    82    3.1    31     4.2   729.2    0.00 
  88   21:10   0.00   31.0    83    2.9    11     4.2   729.1    0.00 
  88   21:20   0.00   30.8    84    4.2    31     5.4   729.0    0.00 
  88   21:30   0.00   31.6    82    3.3    63     5.4   729.0    0.00 
  88   21:40   0.00   32.1    79    4.5    40     5.4   729.0    0.00 
  88   21:50   0.00   32.0    78    3.0    32     4.2   729.0    0.00 
  88   22:00   0.00   31.3    80    3.3    55     4.8   728.9    0.00 
  88   22:10   0.00   30.9    80    3.2    52     6.0   728.9    0.00 
  88   22:20   0.00   30.9    78    3.0    43     4.8   728.9    0.00 
  88   22:30   0.00   29.8    80    3.6    26     4.8   728.9    0.00 
  88   22:40   0.00   29.6    80    3.8    40     4.8   728.8    0.00 
  88   22:50   0.00   29.6    79    4.1    36     4.8   728.8    0.00 
  88   23:00   0.00   29.4    78    3.8    34     4.8   728.9    0.00 
  88   23:10   0.00   29.2    77    3.3    31     4.2   728.9    0.00 
  88   23:20   0.00   29.0    77    4.6    37     5.4   729.0    0.00 
  88   23:30   0.00   28.9    76    4.2    33     5.4   729.0    0.00 
  88   23:40   0.00   28.8    76    3.5    18     4.8   729.0    0.00 
  88   23:50   0.00   28.6    76    4.3    40     6.6   729.0    0.00 
  89    0:00   0.00   28.8    75    3.6    30     5.4   728.9    0.00 
  89    0:10   0.00   28.3    75    2.5     7     4.8   729.0    0.00 
  89    0:20   0.00   27.7    77    4.6    38     5.4   729.0    0.00 
  89    0:30   0.00   27.9    75    4.5    34     6.0   729.0    0.00 
  89    0:40   0.00   28.4    73    4.2    34     6.0   729.0    0.00 
  89    0:50   0.00   28.4    72    4.5    35     6.0   729.0    0.00 
  89    1:00   0.00   28.5    71    4.4    28     6.6   729.0    0.00 
  89    1:10   0.00   28.5    71    4.7    38     6.0   728.8    0.00 
  89    1:20   0.00   28.3    71    4.4    42     5.4   728.7    0.00 
  89    1:30   0.00   27.9    71    3.7    41     5.4   728.5    0.00 
  89    1:40   0.00   27.0    73    3.1    37     5.4   728.4    0.00 
  89    1:50   0.00   26.5    72    4.2    34     5.4   728.3    0.00 
  89    2:00   0.00   26.9    68    4.1    45     6.0   728.2    0.00 
  89    2:10   0.00   27.1    68    3.5    34     5.4   728.2    0.00 
  89    2:20   0.00   26.9    67    4.0    34     5.4   728.1    0.00 
  89    2:30   0.00   26.4    68    3.1    26     6.0   728.1    0.00 
  89    2:40   0.00   25.9    69    4.0    46     6.0   727.8    0.00 
  89    2:50   0.00   25.6    68    3.0   351     4.8   727.7    0.00 
  89    3:00   0.00   25.3    69    2.2    44     4.8   727.5    0.00 
  89    3:10   0.00   25.3    70    3.8    26     6.6   727.6    0.00 
  89    3:20   0.00   25.4    68    3.0   338     4.8   727.5    0.00 
  89    3:30   0.00   24.8    73    3.3    37     5.4   727.5    0.00 
  89    3:40   0.00   25.5    68    3.6    32     5.4   727.4    0.00 
  89    3:50   0.00   25.0    68    3.0    48     5.4   727.5    0.00 
  89    4:00   0.00   24.8    68    3.5    28     5.4   727.4    0.00 
  89    4:10   0.00   25.2    66    3.2    70     4.8   727.3    0.00 
  89    4:20   0.00   25.1    67    3.0    52     4.8   727.2    0.00 
  89    4:30   0.00   25.9    64    2.7    40     5.4   727.1    0.00 
  89    4:40   0.00   26.4    62    3.4    51     5.4   727.0    0.00 
  89    4:50   0.00   27.1    58    2.7   330     4.8   727.0    0.00 
  89    5:00   0.00   25.1    65    1.8    45     4.8   727.2    0.00 
  89    5:10   0.00   26.0    63    3.3    53     5.4   727.3    0.00 
  89    5:20   0.00   27.2    60    2.9    56     4.8   727.3    0.00 
  89    5:30   0.00   27.7    58    3.6    49     5.4   727.2    0.00 
  89    5:40   0.00   27.9    56    3.1    31     4.2   727.3    0.00 
  89    5:50   0.00   28.2    55    3.0    55     5.4   727.3    0.00 
  89    6:00   0.00   28.3    53    2.4    43     4.8   727.3    0.00 
  89    6:10   0.01   28.5    52    2.8    11     4.8   727.3    0.00 
  89    6:20   0.01   28.8    51    3.4    33     5.4   727.2    0.00 
  89    6:30   0.01   29.8    48    2.6     4     5.4   727.2    0.00 
  89    6:40   0.02   30.2    47    2.7   348     4.8   727.3    0.00 
  89    6:50   0.04   31.2    46    2.9    28     4.8   727.3    0.00 
  89    7:00   0.10   31.3    46    3.1    67     4.2   727.3    0.00 
  89    7:10   0.14   33.7    43    2.6    61     3.6   727.3    0.00 
  89    7:20   0.12   34.2    42    2.4   115     4.2   727.3    0.00 
  89    7:30   0.09   34.6    43    3.4    70     5.4   727.1    0.00 
  89    7:40   0.10   34.7    42    2.6   197     5.4   727.0    0.00 
  89    7:50   0.20   36.7    37    4.5   343     9.0   727.0    0.00 
  89    8:00   0.26   38.9    33    5.9   341     9.6   727.0    0.00 
  89    8:10   0.37   42.8    30    3.4   306     5.4   726.9    0.00 
  89    8:20   0.48   41.6    30    3.9   271     6.0   726.7    0.00 
  89    8:30   0.52   40.5    32    3.8   266     6.6   726.7    0.00 
  89    8:40   0.56   42.3    32    4.7   288     7.8   726.7    0.00 
  89    8:50   0.59   42.8    31    4.5   266     7.2   726.6    0.00 
  89    9:00   0.63   41.9    32    4.9   264     9.6   726.4    0.00 
  89    9:10   0.66   43.4    32    4.3   280     7.8   726.5    0.00 
  89    9:20   0.68   44.3    33    3.4   260     6.0   726.5    0.00 
  89    9:30   0.72   44.1    33    4.5   229     7.8   726.3    0.00 
  89    9:40   0.74   44.8    34    4.3   246     6.6   726.3    0.00 
  89    9:50   0.77   47.1    32    3.5   256     6.6   726.2    0.00 
  89   10:00   0.80   49.9    29    6.0   270    13.7   726.3    0.00 
  89   10:10   0.82   47.7    30    6.2   248    12.5   726.2    0.00 
  89   10:20   0.84   48.0    29    6.3   248    11.9   726.2    0.00 
  89   10:30   0.86   47.7    29    6.9   223    13.7   726.1    0.00 
  89   10:40   0.88   47.4    30    8.2   225    14.3   726.0    0.00 
  89   10:50   0.90   47.6    30    7.4   254    20.9   726.0    0.00 
  89   11:00   0.91   47.7    30    7.9   251    14.3   726.0    0.00 
  89   11:10   0.92   47.3    31    8.5   245    15.5   725.9    0.00 
  89   11:20   0.93   47.1    32    8.2   239    16.1   725.8    0.00 

Return to Valle Toledo, Valles Caldera graphs page.


Western Regional Climate Center,wrcc@dri.edu